Time;durP1;ratioP1;P1;durP2;ratioP2;P2;SDS_P1;SDS_P2;PMS_P1;PMS_P2;Temp;Humidity;BMP_temperature;BMP_pressure;BME280_temperature;BME280_humidity;BME280_pressure;Samples;Min_cycle;Max_cycle;Signal;HPM_P1;HPM_P2
2021/05/02 00:01:43;;;;;;;;;;;14.40;48.20;;;;;;5032397;28;75247;-65
2021/05/02 00:04:09;;;;;;;;;;;14.30;48.50;;;;;;5033776;28;75569;-66
2021/05/02 00:06:35;;;;;;;;;;;14.30;48.30;;;;;;5033692;28;75347;-65
2021/05/02 00:09:00;;;;;;;;;;;14.30;48.60;;;;;;5033800;28;75073;-65
2021/05/02 00:11:26;;;;;;;;;;;14.20;48.80;;;;;;5031799;28;77487;-65
2021/05/02 00:13:51;;;;;;;;;;;14.20;49.10;;;;;;5031907;28;77297;-65
2021/05/02 00:16:17;;;;;;;;;;;14.10;49.00;;;;;;5033626;28;75816;-66
2021/05/02 00:18:45;;;;;;;;;;;14.00;49.20;;;;;;5032066;28;76474;-65
2021/05/02 00:21:11;;;;;;;;;;;14.00;49.70;;;;;;5032024;28;76074;-67
2021/05/02 00:23:38;;;;;;;;;;;13.90;49.70;;;;;;5033562;28;75443;-67
2021/05/02 00:26:04;;;;;;;;;;;13.90;49.60;;;;;;5031969;28;75516;-66
2021/05/02 00:28:31;;;;;;;;;;;13.90;49.60;;;;;;5031686;28;78623;-66
2021/05/02 00:30:58;;;;;;;;;;;13.80;49.40;;;;;;5033379;28;75122;-66
2021/05/02 00:33:24;;;;;;;;;;;13.80;49.50;;;;;;5031581;28;76866;-69
2021/05/02 00:35:50;;;;;;;;;;;13.80;49.70;;;;;;5031738;28;75513;-67
2021/05/02 00:38:16;;;;;;;;;;;13.70;49.70;;;;;;5031799;28;77310;-64
2021/05/02 00:40:42;;;;;;;;;;;13.70;49.50;;;;;;5031443;28;76214;-66
2021/05/02 00:43:09;;;;;;;;;;;13.60;49.70;;;;;;5033356;28;75178;-65
2021/05/02 00:45:38;;;;;;;;;;;13.60;49.90;;;;;;5033004;28;74399;-66
2021/05/02 00:48:06;;;;;;;;;;;13.50;50.00;;;;;;5033247;28;75835;-65
2021/05/02 00:50:33;;;;;;;;;;;13.50;50.10;;;;;;5031453;28;76264;-66
2021/05/02 00:53:02;;;;;;;;;;;13.40;50.30;;;;;;5031498;28;74557;-65
2021/05/02 00:55:31;;;;;;;;;;;13.40;50.30;;;;;;5032885;28;75081;-64
2021/05/02 00:57:58;;;;;;;;;;;13.30;50.50;;;;;;5031668;28;78093;-63
2021/05/02 01:00:26;;;;;;;;;;;13.30;50.50;;;;;;5031297;28;74481;-64
2021/05/02 01:02:56;;;;;;;;;;;13.30;50.70;;;;;;5032989;28;75293;-66
2021/05/02 01:05:22;;;;;;;;;;;13.20;50.70;;;;;;5032550;28;75391;-65
2021/05/02 01:07:50;;;;;;;;;;;13.20;50.90;;;;;;5031303;28;77729;-64
2021/05/02 01:10:16;;;;;;;;;;;13.20;50.90;;;;;;5030880;28;77304;-64
2021/05/02 01:12:43;;;;;;;;;;;13.20;50.90;;;;;;5031376;28;77895;-65
2021/05/02 01:15:12;;;;;;;;;;;13.30;50.80;;;;;;5032239;28;75659;-66
2021/05/02 01:17:41;;;;;;;;;;;13.30;50.80;;;;;;5031110;28;78000;-67
2021/05/02 01:20:06;;;;;;;;;;;13.30;50.70;;;;;;5031062;28;77920;-67
2021/05/02 01:22:36;;;;;;;;;;;13.30;50.80;;;;;;5032307;28;75199;-66
2021/05/02 01:25:02;;;;;;;;;;;13.30;50.60;;;;;;5032865;28;74428;-66
2021/05/02 01:27:29;;;;;;;;;;;13.30;50.70;;;;;;5032099;28;77303;-65
2021/05/02 01:29:55;;;;;;;;;;;13.30;50.90;;;;;;5032741;28;74367;-65
2021/05/02 01:32:21;;;;;;;;;;;13.30;50.90;;;;;;5030893;28;75762;-66
2021/05/02 01:34:48;;;;;;;;;;;13.20;50.90;;;;;;5031013;28;76623;-65
2021/05/02 01:37:13;;;;;;;;;;;13.20;51.10;;;;;;5032287;28;75184;-65
2021/05/02 01:39:39;;;;;;;;;;;13.20;50.90;;;;;;5031012;28;76321;-65
2021/05/02 01:42:05;;;;;;;;;;;13.20;50.80;;;;;;5032529;28;75173;-66
2021/05/02 01:44:30;;;;;;;;;;;13.20;50.70;;;;;;5030608;28;75259;-66
2021/05/02 01:46:58;;;;;;;;;;;13.20;50.70;;;;;;5030579;28;77124;-66
2021/05/02 01:49:25;;;;;;;;;;;13.20;50.50;;;;;;5032488;28;74447;-66
2021/05/02 01:51:50;;;;;;;;;;;13.10;50.50;;;;;;5030756;28;77457;-67
2021/05/02 01:54:16;;;;;;;;;;;13.10;51.40;;;;;;5030764;28;77275;-66
2021/05/02 01:56:43;;;;;;;;;;;13.00;51.70;;;;;;5032028;28;74741;-64
2021/05/02 01:59:12;;;;;;;;;;;13.00;52.90;;;;;;5032141;28;75234;-65
2021/05/02 02:01:38;;;;;;;;;;;12.90;52.80;;;;;;5030300;28;78332;-66
2021/05/02 02:04:04;;;;;;;;;;;12.90;52.90;;;;;;5031926;28;75376;-65
2021/05/02 02:06:30;;;;;;;;;;;12.80;53.30;;;;;;5030360;28;77116;-66
2021/05/02 02:08:57;;;;;;;;;;;12.80;53.50;;;;;;5032468;28;75062;-67
2021/05/02 02:11:24;;;;;;;;;;;12.80;53.90;;;;;;5030610;28;77413;-66
2021/05/02 02:13:50;;;;;;;;;;;12.70;54.20;;;;;;5032178;28;74649;-65
2021/05/02 02:16:15;;;;;;;;;;;12.80;54.10;;;;;;5030505;28;77132;-67
2021/05/02 02:18:42;;;;;;;;;;;12.70;54.70;;;;;;5032300;28;74582;-66
2021/05/02 02:21:08;;;;;;;;;;;12.60;55.10;;;;;;5032018;28;75243;-64
2021/05/02 02:23:35;;;;;;;;;;;12.60;55.00;;;;;;5031828;28;75190;-65
2021/05/02 02:26:13;;;;;;;;;;;12.50;55.30;;;;;;5034863;28;75617;-65
2021/05/02 02:28:39;;;;;;;;;;;12.40;55.20;;;;;;5035502;28;75171;-64
2021/05/02 02:31:06;;;;;;;;;;;12.40;55.40;;;;;;5033482;28;76945;-66
2021/05/02 02:33:33;;;;;;;;;;;12.40;55.60;;;;;;5035203;28;75133;-67
2021/05/02 02:35:59;;;;;;;;;;;12.30;55.00;;;;;;5035253;28;75482;-68
2021/05/02 02:38:26;;;;;;;;;;;12.30;55.30;;;;;;5035407;28;75261;-67
2021/05/02 02:40:52;;;;;;;;;;;12.30;55.20;;;;;;5033652;28;78256;-63
2021/05/02 02:43:22;;;;;;;;;;;12.40;55.40;;;;;;5035133;28;75295;-65
2021/05/02 02:45:51;;;;;;;;;;;12.30;55.60;;;;;;5034926;28;75794;-64
2021/05/02 02:48:19;;;;;;;;;;;12.20;55.70;;;;;;5035120;28;74545;-64
2021/05/02 02:50:48;;;;;;;;;;;12.20;55.70;;;;;;5034984;28;75059;-62
2021/05/02 02:53:14;;;;;;;;;;;12.30;55.70;;;;;;5033153;28;76391;-62
2021/05/02 02:55:41;;;;;;;;;;;12.30;55.60;;;;;;5033144;28;75449;-65
2021/05/02 02:58:09;;;;;;;;;;;12.30;55.00;;;;;;5032856;28;77481;-65
2021/05/02 03:00:35;;;;;;;;;;;12.20;55.00;;;;;;5034911;28;75278;-64
2021/05/02 03:03:03;;;;;;;;;;;12.20;55.00;;;;;;5033227;28;77407;-66
2021/05/02 03:05:31;;;;;;;;;;;12.20;55.10;;;;;;5032711;28;77861;-64
2021/05/02 03:07:58;;;;;;;;;;;12.20;54.90;;;;;;5033246;28;77569;-63
2021/05/02 03:10:24;;;;;;;;;;;12.20;55.20;;;;;;5033411;28;77752;-64
2021/05/02 03:12:50;;;;;;;;;;;12.20;55.40;;;;;;5033078;28;77061;-64
2021/05/02 03:15:16;;;;;;;;;;;12.20;55.20;;;;;;5032801;28;75210;-66
2021/05/02 03:17:43;;;;;;;;;;;12.20;55.30;;;;;;5034621;28;75134;-65
2021/05/02 03:20:13;;;;;;;;;;;12.20;55.40;;;;;;5033043;28;77257;-64
2021/05/02 03:22:45;;;;;;;;;;;12.10;55.20;;;;;;5034486;28;75170;-67
2021/05/02 03:25:11;;;;;;;;;;;12.10;55.50;;;;;;5034479;28;75215;-65
2021/05/02 03:27:41;;;;;;;;;;;12.00;55.00;;;;;;5034503;28;75097;-65
2021/05/02 03:30:07;;;;;;;;;;;11.90;55.30;;;;;;5034725;28;74471;-65
2021/05/02 03:32:35;;;;;;;;;;;12.00;55.20;;;;;;5032632;28;75526;-64
2021/05/02 03:35:03;;;;;;;;;;;12.00;55.10;;;;;;5032775;28;76439;-63
2021/05/02 03:37:32;;;;;;;;;;;12.00;55.40;;;;;;5034242;28;75244;-65
2021/05/02 03:39:58;;;;;;;;;;;12.00;54.90;;;;;;5034176;28;74565;-67
2021/05/02 03:42:23;;;;;;;;;;;12.00;55.00;;;;;;5032464;28;76340;-67
2021/05/02 03:44:49;;;;;;;;;;;12.00;54.90;;;;;;5031955;28;76801;-64
2021/05/02 03:47:15;;;;;;;;;;;12.00;55.20;;;;;;5034099;28;75114;-64
2021/05/02 03:49:40;;;;;;;;;;;12.00;55.10;;;;;;5033726;28;75487;-64
2021/05/02 03:52:06;;;;;;;;;;;12.00;55.10;;;;;;5034343;28;74635;-64
2021/05/02 03:54:32;;;;;;;;;;;12.00;54.80;;;;;;5032324;28;78616;-65
2021/05/02 03:56:58;;;;;;;;;;;12.10;54.90;;;;;;5032229;28;76078;-64
2021/05/02 03:59:24;;;;;;;;;;;12.10;54.90;;;;;;5033835;28;75269;-63
2021/05/02 04:01:52;;;;;;;;;;;12.00;54.90;;;;;;5033630;28;75332;-63
2021/05/02 04:04:27;;;;;;;;;;;12.00;54.90;;;;;;5033704;28;75747;-64
2021/05/02 04:07:02;;;;;;;;;;;12.00;54.90;;;;;;5033704;28;74476;-64
2021/05/02 04:09:28;;;;;;;;;;;12.00;54.90;;;;;;5033862;28;75064;-63
2021/05/02 04:11:54;;;;;;;;;;;12.00;55.00;;;;;;5032186;28;76516;-63
2021/05/02 04:14:20;;;;;;;;;;;12.00;54.90;;;;;;5031519;28;77485;-65
2021/05/02 04:17:02;;;;;;;;;;;12.00;55.00;;;;;;5035037;27;77290;-66
2021/05/02 04:19:29;;;;;;;;;;;11.90;54.90;;;;;;5053727;28;75242;-64
2021/05/02 04:21:55;;;;;;;;;;;11.90;55.00;;;;;;5035329;28;77849;-68
2021/05/02 04:24:21;;;;;;;;;;;12.00;55.10;;;;;;5031959;28;74665;-65
2021/05/02 04:26:48;;;;;;;;;;;12.00;54.90;;;;;;5043953;28;77315;-68
2021/05/02 04:29:14;;;;;;;;;;;12.00;54.80;;;;;;5053622;28;75573;-63
2021/05/02 04:31:40;;;;;;;;;;;12.00;54.70;;;;;;5053507;28;75472;-64
2021/05/02 04:34:05;;;;;;;;;;;12.00;54.60;;;;;;5052083;28;77261;-67
2021/05/02 04:36:31;;;;;;;;;;;12.10;54.70;;;;;;5041518;28;75946;-68
2021/05/02 04:38:57;;;;;;;;;;;12.00;54.60;;;;;;5033517;28;75088;-65
2021/05/02 04:41:23;;;;;;;;;;;12.00;54.50;;;;;;5031810;28;77177;-64
2021/05/02 04:43:49;;;;;;;;;;;12.00;54.60;;;;;;5033403;28;74408;-62
2021/05/02 04:46:15;;;;;;;;;;;12.00;54.50;;;;;;5033029;28;74515;-63
2021/05/02 04:48:41;;;;;;;;;;;12.00;54.60;;;;;;5032390;28;74958;-64
2021/05/02 04:51:07;;;;;;;;;;;12.00;54.50;;;;;;5033461;28;74475;-63
2021/05/02 04:53:32;;;;;;;;;;;12.00;54.70;;;;;;5033096;28;75310;-63
2021/05/02 04:55:58;;;;;;;;;;;12.00;54.40;;;;;;5031015;28;77370;-66
2021/05/02 04:58:23;;;;;;;;;;;12.00;54.40;;;;;;5033029;28;75251;-62
2021/05/02 05:00:49;;;;;;;;;;;12.00;54.50;;;;;;5032710;28;75121;-63
2021/05/02 05:03:16;;;;;;;;;;;12.00;54.60;;;;;;5032898;28;75245;-65
2021/05/02 05:05:42;;;;;;;;;;;12.10;54.70;;;;;;5032431;28;75629;-65
2021/05/02 05:08:07;;;;;;;;;;;12.10;54.50;;;;;;5033015;28;76087;-63
2021/05/02 05:10:33;;;;;;;;;;;12.00;54.50;;;;;;5032875;28;75660;-64
2021/05/02 05:12:58;;;;;;;;;;;12.00;54.70;;;;;;5030970;28;76185;-65
2021/05/02 05:15:24;;;;;;;;;;;12.00;54.30;;;;;;5031138;28;77328;-64
2021/05/02 05:17:50;;;;;;;;;;;12.00;54.40;;;;;;5032728;28;74464;-63
2021/05/02 05:20:15;;;;;;;;;;;12.00;54.50;;;;;;5033361;28;74567;-64
2021/05/02 05:22:41;;;;;;;;;;;12.00;54.40;;;;;;5032416;28;75157;-63
2021/05/02 05:25:07;;;;;;;;;;;12.00;54.30;;;;;;5032666;28;75235;-65
2021/05/02 05:27:32;;;;;;;;;;;12.00;54.50;;;;;;5030741;28;77174;-67
2021/05/02 05:29:58;;;;;;;;;;;11.90;54.60;;;;;;5032534;28;74993;-65
2021/05/02 05:32:24;;;;;;;;;;;11.90;54.70;;;;;;5032472;28;75159;-65
2021/05/02 05:34:49;;;;;;;;;;;11.90;54.80;;;;;;5032515;28;75177;-64
2021/05/02 05:37:15;;;;;;;;;;;11.90;55.00;;;;;;5030937;28;78177;-65
2021/05/02 05:39:41;;;;;;;;;;;11.90;55.00;;;;;;5030611;28;77412;-65
2021/05/02 05:42:07;;;;;;;;;;;11.90;55.00;;;;;;5030998;28;75234;-66
2021/05/02 05:44:32;;;;;;;;;;;11.90;55.10;;;;;;5032051;28;75093;-67
2021/05/02 05:46:58;;;;;;;;;;;11.90;55.30;;;;;;5032518;28;75044;-67
2021/05/02 05:49:24;;;;;;;;;;;11.80;55.70;;;;;;5030639;28;74997;-64
2021/05/02 05:51:52;;;;;;;;;;;11.80;55.70;;;;;;5031970;28;75180;-65
2021/05/02 05:54:18;;;;;;;;;;;11.80;55.60;;;;;;5030570;28;76929;-65
2021/05/02 05:56:44;;;;;;;;;;;11.80;55.70;;;;;;5031814;28;74682;-65
2021/05/02 05:59:10;;;;;;;;;;;11.80;55.60;;;;;;5030772;28;76351;-64
2021/05/02 06:01:35;;;;;;;;;;;11.80;55.90;;;;;;5035495;28;75147;-65
2021/05/02 06:04:01;;;;;;;;;;;11.90;55.80;;;;;;5034012;28;77056;-65
2021/05/02 06:06:32;;;;;;;;;;;11.80;55.80;;;;;;5034320;28;77911;-65
2021/05/02 06:08:59;;;;;;;;;;;11.90;55.80;;;;;;5035699;28;75155;-66
2021/05/02 06:11:24;;;;;;;;;;;11.90;56.00;;;;;;5035795;28;75559;-65
2021/05/02 06:13:50;;;;;;;;;;;11.90;55.80;;;;;;5033704;28;77039;-65
2021/05/02 06:16:15;;;;;;;;;;;11.90;55.80;;;;;;5033863;28;74713;-64
2021/05/02 06:18:41;;;;;;;;;;;12.00;55.50;;;;;;5038698;28;77721;-63
2021/05/02 06:21:07;;;;;;;;;;;12.20;55.70;;;;;;5054076;28;77559;-64
2021/05/02 06:23:32;;;;;;;;;;;12.30;55.40;;;;;;5055801;28;75203;-68
2021/05/02 06:25:58;;;;;;;;;;;12.40;55.10;;;;;;5055618;28;75177;-70
2021/05/02 06:28:23;;;;;;;;;;;12.50;54.80;;;;;;5053683;28;77163;-65
2021/05/02 06:30:49;;;;;;;;;;;12.40;54.70;;;;;;5053718;28;76167;-65
2021/05/02 06:33:15;;;;;;;;;;;12.40;54.70;;;;;;5053807;28;76907;-64
2021/05/02 06:35:40;;;;;;;;;;;12.40;54.60;;;;;;5055480;28;75829;-64
2021/05/02 06:38:06;;;;;;;;;;;12.40;54.90;;;;;;5053748;28;75326;-63
2021/05/02 06:40:32;;;;;;;;;;;12.40;55.00;;;;;;5053915;28;77841;-64
2021/05/02 06:42:59;;;;;;;;;;;12.40;55.10;;;;;;5053784;28;76451;-63
2021/05/02 06:45:25;;;;;;;;;;;12.50;55.10;;;;;;5055545;28;75214;-64
2021/05/02 06:47:50;;;;;;;;;;;12.60;55.00;;;;;;5055748;27;74446;-62
2021/05/02 06:50:17;;;;;;;;;;;12.80;54.80;;;;;;5055443;28;75117;-63
2021/05/02 06:52:43;;;;;;;;;;;13.00;54.30;;;;;;5053929;28;75428;-63
2021/05/02 06:55:09;;;;;;;;;;;13.20;53.90;;;;;;5053691;28;78233;-64
2021/05/02 06:57:34;;;;;;;;;;;13.40;53.30;;;;;;5055697;27;74927;-64
2021/05/02 07:00:00;;;;;;;;;;;13.50;53.30;;;;;;5053237;28;77633;-63
2021/05/02 07:02:25;;;;;;;;;;;13.50;53.30;;;;;;5053915;28;76228;-62
2021/05/02 07:04:51;;;;;;;;;;;13.50;53.10;;;;;;5053320;28;75656;-62
2021/05/02 07:07:17;;;;;;;;;;;13.40;53.20;;;;;;5053799;28;77532;-65
2021/05/02 07:09:43;;;;;;;;;;;13.40;53.30;;;;;;5053623;28;74532;-63
2021/05/02 07:12:09;;;;;;;;;;;13.40;53.40;;;;;;5052958;28;77065;-65
2021/05/02 07:14:35;;;;;;;;;;;13.50;53.30;;;;;;5055181;27;74528;-63
2021/05/02 07:17:00;;;;;;;;;;;13.60;52.90;;;;;;5055067;27;75190;-63
2021/05/02 07:19:26;;;;;;;;;;;13.70;52.50;;;;;;5055330;27;75090;-65
2021/05/02 07:22:01;;;;;;;;;;;13.90;52.40;;;;;;5053918;28;74561;-65
2021/05/02 07:24:27;;;;;;;;;;;13.90;52.10;;;;;;5046911;27;78539;-65
2021/05/02 07:26:52;;;;;;;;;;;13.90;52.20;;;;;;5036261;27;76352;-64
2021/05/02 07:29:18;;;;;;;;;;;13.80;52.20;;;;;;5043344;28;75137;-65
2021/05/02 07:31:43;;;;;;;;;;;13.70;52.20;;;;;;5034337;28;76830;-67
2021/05/02 07:34:09;;;;;;;;;;;13.70;52.30;;;;;;5053216;28;77495;-69
2021/05/02 07:36:35;;;;;;;;;;;13.70;52.20;;;;;;5055096;28;75078;-68
2021/05/02 07:39:00;;;;;;;;;;;13.70;52.10;;;;;;5053326;28;77163;-63
2021/05/02 07:41:26;;;;;;;;;;;13.70;52.20;;;;;;5043367;28;75211;-63
2021/05/02 07:43:51;;;;;;;;;;;13.80;52.00;;;;;;5040569;27;77603;-63
2021/05/02 07:46:17;;;;;;;;;;;13.90;51.90;;;;;;5032624;28;75364;-65
2021/05/02 07:48:43;;;;;;;;;;;14.00;51.50;;;;;;5034515;28;75112;-66
2021/05/02 07:51:10;;;;;;;;;;;14.10;51.40;;;;;;5034928;28;75305;-65
2021/05/02 07:53:36;;;;;;;;;;;14.10;51.30;;;;;;5034472;28;75289;-66
2021/05/02 07:56:01;;;;;;;;;;;14.20;51.10;;;;;;5032903;28;77086;-66
2021/05/02 07:58:27;;;;;;;;;;;14.20;50.80;;;;;;5034350;28;74466;-66
2021/05/02 08:00:52;;;;;;;;;;;14.20;50.90;;;;;;5032850;28;76941;-65
2021/05/02 08:03:18;;;;;;;;;;;14.30;51.20;;;;;;5032959;28;76538;-66
2021/05/02 08:05:44;;;;;;;;;;;14.30;51.10;;;;;;5049414;28;75112;-67
2021/05/02 08:08:09;;;;;;;;;;;14.40;51.00;;;;;;5052342;28;77971;-66
2021/05/02 08:10:35;;;;;;;;;;;14.40;51.10;;;;;;5052863;28;74758;-67
2021/05/02 08:13:00;;;;;;;;;;;14.50;50.50;;;;;;5052540;28;75424;-68
2021/05/02 08:15:27;;;;;;;;;;;14.50;50.60;;;;;;5054086;28;75179;-68
2021/05/02 08:17:53;;;;;;;;;;;14.60;50.50;;;;;;5053882;28;75690;-68
2021/05/02 08:20:18;;;;;;;;;;;14.70;50.30;;;;;;5052118;28;76258;-68
2021/05/02 08:22:44;;;;;;;;;;;14.80;50.10;;;;;;5053016;27;75422;-69
2021/05/02 08:25:10;;;;;;;;;;;14.90;50.00;;;;;;5053931;28;75313;-68
2021/05/02 08:27:36;;;;;;;;;;;14.90;49.70;;;;;;5051996;28;78636;-67
2021/05/02 08:30:02;;;;;;;;;;;15.00;49.80;;;;;;5052064;28;76782;-65
2021/05/02 08:32:28;;;;;;;;;;;15.10;49.50;;;;;;5051961;28;77415;-67
2021/05/02 08:34:53;;;;;;;;;;;15.20;49.20;;;;;;5053703;28;75473;-67
2021/05/02 08:37:19;;;;;;;;;;;15.20;49.10;;;;;;5053494;28;75061;-67
2021/05/02 08:39:45;;;;;;;;;;;15.30;49.20;;;;;;5052277;28;76444;-67
2021/05/02 08:42:10;;;;;;;;;;;15.30;49.20;;;;;;5052248;28;76408;-68
2021/05/02 08:44:36;;;;;;;;;;;15.40;49.10;;;;;;5046661;27;75327;-67
2021/05/02 08:47:02;;;;;;;;;;;15.40;49.30;;;;;;5046172;28;74619;-68
2021/05/02 08:49:28;;;;;;;;;;;15.40;49.30;;;;;;5050955;28;77040;-68
2021/05/02 08:51:53;;;;;;;;;;;15.60;48.90;;;;;;5051966;28;75251;-68
2021/05/02 08:54:19;;;;;;;;;;;15.60;48.80;;;;;;5053330;28;75149;-67
2021/05/02 08:56:45;;;;;;;;;;;15.60;48.80;;;;;;5053413;28;75618;-66
2021/05/02 08:59:12;;;;;;;;;;;15.80;48.20;;;;;;5053469;28;75385;-67
2021/05/02 09:01:38;;;;;;;;;;;15.80;48.70;;;;;;5051436;28;78054;-65
2021/05/02 09:04:04;;;;;;;;;;;15.90;48.10;;;;;;5052724;28;75829;-69
2021/05/02 09:06:31;;;;;;;;;;;16.00;48.00;;;;;;5044693;28;75062;-65
2021/05/02 09:09:09;;;;;;;;;;;16.00;47.60;;;;;;5047243;28;75967;-63
2021/05/02 09:11:37;;;;;;;;;;;16.10;47.20;;;;;;5049643;27;92933;-65
2021/05/02 09:14:23;;;;;;;;;;;16.20;47.50;;;;;;5053404;28;74439;-65
2021/05/02 09:16:50;;;;;;;;;;;16.30;46.90;;;;;;5051090;27;74874;-64
2021/05/02 09:19:17;;;;;;;;;;;16.40;46.60;;;;;;5044072;28;75091;-61
2021/05/02 09:21:43;;;;;;;;;;;16.50;45.90;;;;;;5031812;28;76882;-65
2021/05/02 09:24:25;;;;;;;;;;;16.60;45.50;;;;;;5030951;28;78083;-65
2021/05/02 09:27:01;;;;;;;;;;;16.70;45.50;;;;;;5031347;28;74621;-67
2021/05/02 09:29:28;;;;;;;;;;;16.70;45.70;;;;;;5037745;28;75483;-63
2021/05/02 09:31:54;;;;;;;;;;;16.70;44.50;;;;;;5051201;28;77090;-65
2021/05/02 09:34:19;;;;;;;;;;;16.80;44.70;;;;;;5051730;27;75400;-66
2021/05/02 09:36:51;;;;;;;;;;;16.90;44.60;;;;;;5033441;27;77629;-64
2021/05/02 09:39:36;;;;;;;;;;;17.00;43.70;;;;;;5049483;28;76360;-66
2021/05/02 09:42:09;;;;;;;;;;;17.20;43.70;;;;;;5048644;27;75221;-66
2021/05/02 09:44:54;;;;;;;;;;;17.20;43.60;;;;;;5050691;28;76274;-66
2021/05/02 09:47:20;;;;;;;;;;;17.30;43.50;;;;;;5048509;28;76175;-63
2021/05/02 09:50:05;;;;;;;;;;;17.50;43.00;;;;;;5050281;28;75934;-67
2021/05/02 09:52:43;;;;;;;;;;;17.60;43.00;;;;;;5049034;28;76474;-66
2021/05/02 09:55:22;;;;;;;;;;;17.90;42.70;;;;;;5049762;28;78500;-65
2021/05/02 09:57:58;;;;;;;;;;;18.00;42.10;;;;;;5049805;28;77446;-63
2021/05/02 10:00:40;;;;;;;;;;;18.20;42.10;;;;;;5050245;28;74746;-66
2021/05/02 10:03:10;;;;;;;;;;;18.40;41.60;;;;;;5052134;28;75200;-63
2021/05/02 10:05:48;;;;;;;;;;;18.50;41.40;;;;;;5050248;28;75683;-64
2021/05/02 10:08:14;;;;;;;;;;;18.70;41.70;;;;;;5052314;28;75063;-66
2021/05/02 10:10:39;;;;;;;;;;;18.90;40.20;;;;;;5050649;28;75762;-66
2021/05/02 10:13:05;;;;;;;;;;;19.00;40.50;;;;;;5052378;28;75275;-64
2021/05/02 10:15:32;;;;;;;;;;;19.30;40.30;;;;;;5052013;28;75201;-66
2021/05/02 10:17:57;;;;;;;;;;;19.50;39.10;;;;;;5050765;28;74625;-67
2021/05/02 10:20:24;;;;;;;;;;;19.70;39.30;;;;;;5050452;28;75329;-64
2021/05/02 10:22:50;;;;;;;;;;;20.00;38.80;;;;;;5084760;27;76929;-63
2021/05/02 10:25:16;;;;;;;;;;;20.20;37.60;;;;;;5052372;28;74491;-63
2021/05/02 10:27:46;;;;;;;;;;;20.30;37.00;;;;;;5052036;28;75210;-66
2021/05/02 10:30:23;;;;;;;;;;;20.40;37.50;;;;;;5051935;28;75270;-63
2021/05/02 10:32:50;;;;;;;;;;;20.70;37.10;;;;;;5051776;28;75709;-64
2021/05/02 10:35:15;;;;;;;;;;;21.00;36.80;;;;;;5050400;28;78098;-66
2021/05/02 10:37:51;;;;;;;;;;;21.20;36.50;;;;;;5084098;27;77210;-67
2021/05/02 10:40:20;;;;;;;;;;;21.60;35.80;;;;;;5050756;28;78396;-65
2021/05/02 10:42:53;;;;;;;;;;;22.00;35.20;;;;;;5052449;28;75352;-67
2021/05/02 10:45:27;;;;;;;;;;;22.40;34.60;;;;;;5050640;28;75468;-67
2021/05/02 10:48:02;;;;;;;;;;;22.80;34.10;;;;;;5054108;28;77340;-67
2021/05/02 10:50:28;;;;;;;;;;;23.20;32.30;;;;;;5055526;28;75280;-66
2021/05/02 10:53:13;;;;;;;;;;;23.50;32.60;;;;;;5053919;28;76321;-68
2021/05/02 10:55:55;;;;;;;;;;;24.00;32.50;;;;;;5053632;28;78035;-67
2021/05/02 10:58:24;;;;;;;;;;;24.50;32.00;;;;;;5055882;28;74390;-66
2021/05/02 11:00:58;;;;;;;;;;;25.10;28.90;;;;;;5053410;28;75592;-66
2021/05/02 11:03:39;;;;;;;;;;;25.30;30.90;;;;;;5053820;28;74815;-67
2021/05/02 11:06:06;;;;;;;;;;;26.00;29.70;;;;;;5055246;28;75117;-65
2021/05/02 11:08:47;;;;;;;;;;;27.00;29.20;;;;;;5055021;28;74423;-65
2021/05/02 11:11:32;;;;;;;;;;;28.10;28.00;;;;;;5053641;28;78305;-65
2021/05/02 11:14:06;;;;;;;;;;;29.20;26.40;;;;;;5054902;28;75356;-64
2021/05/02 11:16:32;;;;;;;;;;;29.20;26.20;;;;;;5053564;28;77854;-65
2021/05/02 11:18:58;;;;;;;;;;;27.40;27.10;;;;;;5053517;28;76249;-65
2021/05/02 11:21:24;;;;;;;;;;;26.80;28.20;;;;;;5053532;28;77032;-67
2021/05/02 11:23:54;;;;;;;;;;;28.90;27.00;;;;;;5053301;28;77454;-67
2021/05/02 11:26:38;;;;;;;;;;;31.20;24.40;;;;;;5053348;28;77527;-64
2021/05/02 11:29:10;;;;;;;;;;;33.10;22.80;;;;;;5053485;28;77783;-64
2021/05/02 11:31:42;;;;;;;;;;;34.20;21.50;;;;;;5053439;28;75219;-67
2021/05/02 11:34:07;;;;;;;;;;;35.00;20.40;;;;;;5053116;28;77347;-65
2021/05/02 11:36:37;;;;;;;;;;;35.50;19.70;;;;;;5054742;28;75129;-67
2021/05/02 11:39:03;;;;;;;;;;;35.60;19.50;;;;;;5053324;28;76678;-66
2021/05/02 11:41:29;;;;;;;;;;;36.00;18.70;;;;;;5052808;28;76007;-66
2021/05/02 11:43:54;;;;;;;;;;;36.20;18.10;;;;;;5055338;28;74555;-64
2021/05/02 11:46:23;;;;;;;;;;;36.50;18.70;;;;;;5054684;28;75029;-64
2021/05/02 11:48:50;;;;;;;;;;;37.60;18.00;;;;;;5052954;28;75667;-64
2021/05/02 11:51:16;;;;;;;;;;;37.90;17.60;;;;;;5054701;28;74989;-65
2021/05/02 11:53:52;;;;;;;;;;;38.10;15.40;;;;;;5052862;28;75616;-67
2021/05/02 11:56:22;;;;;;;;;;;37.70;16.30;;;;;;5052615;27;76956;-65
2021/05/02 11:58:52;;;;;;;;;;;38.50;16.70;;;;;;5051886;28;76549;-66
2021/05/02 12:01:25;;;;;;;;;;;39.30;16.40;;;;;;5052896;28;76437;-66
2021/05/02 12:03:51;;;;;;;;;;;40.30;16.10;;;;;;5054060;28;75253;-66
2021/05/02 12:06:24;;;;;;;;;;;41.50;15.50;;;;;;5052296;28;77477;-64
2021/05/02 12:08:50;;;;;;;;;;;40.50;15.90;;;;;;5054498;28;75636;-68
2021/05/02 12:11:16;;;;;;;;;;;39.80;15.30;;;;;;5052566;28;75794;-67
2021/05/02 12:13:44;;;;;;;;;;;40.50;14.20;;;;;;5054289;28;75413;-68
2021/05/02 12:16:11;;;;;;;;;;;40.70;15.70;;;;;;5052227;28;75081;-68
2021/05/02 12:18:40;;;;;;;;;;;41.80;15.80;;;;;;5086794;27;76286;-67
2021/05/02 12:21:16;;;;;;;;;;;42.60;14.90;;;;;;5054266;28;74713;-68
2021/05/02 12:23:42;;;;;;;;;;;43.00;14.10;;;;;;5052544;28;77790;-67
2021/05/02 12:26:08;;;;;;;;;;;43.20;13.90;;;;;;5054050;28;75189;-66
2021/05/02 12:28:34;;;;;;;;;;;43.20;14.40;;;;;;5052364;28;77756;-67
2021/05/02 12:31:00;;;;;;;;;;;43.70;14.00;;;;;;5054172;28;75749;-67
2021/05/02 12:33:25;;;;;;;;;;;44.40;14.30;;;;;;5052065;28;74694;-66
2021/05/02 12:35:51;;;;;;;;;;;45.20;13.90;;;;;;5054584;28;74602;-66
2021/05/02 12:38:26;;;;;;;;;;;45.90;13.40;;;;;;5052240;28;75688;-66
2021/05/02 12:40:52;;;;;;;;;;;46.00;13.30;;;;;;5052278;28;77191;-66
2021/05/02 12:43:36;;;;;;;;;;;45.20;13.60;;;;;;5053745;28;76568;-64
2021/05/02 12:46:01;;;;;;;;;;;43.80;13.50;;;;;;5053698;28;75842;-66
2021/05/02 12:48:29;;;;;;;;;;;44.30;14.70;;;;;;5054123;28;76651;-67
2021/05/02 12:50:56;;;;;;;;;;;45.40;14.00;;;;;;5053633;27;75402;-66
2021/05/02 12:53:34;;;;;;;;;;;45.90;14.20;;;;;;5053176;28;76691;-67
2021/05/02 12:56:00;;;;;;;;;;;46.50;14.00;;;;;;5051837;28;77383;-66
2021/05/02 12:58:36;;;;;;;;;;;46.00;13.70;;;;;;5054263;28;74487;-68
2021/05/02 13:01:05;;;;;;;;;;;43.40;14.40;;;;;;5053123;28;75170;-65
2021/05/02 13:03:42;;;;;;;;;;;41.70;15.30;;;;;;5053096;28;76510;-66
2021/05/02 13:06:08;;;;;;;;;;;40.40;16.10;;;;;;5053315;28;74608;-67
2021/05/02 13:08:35;;;;;;;;;;;42.30;15.50;;;;;;5051328;27;78003;-67
2021/05/02 13:11:19;;;;;;;;;;;43.40;13.60;;;;;;5051906;28;74717;-67
2021/05/02 13:13:45;;;;;;;;;;;41.00;15.10;;;;;;5051535;28;76783;-68
2021/05/02 13:16:11;;;;;;;;;;;37.90;17.50;;;;;;5051667;28;77657;-68
2021/05/02 13:18:36;;;;;;;;;;;35.60;18.80;;;;;;5052031;28;77529;-68
2021/05/02 13:21:02;;;;;;;;;;;33.70;20.60;;;;;;5053279;28;75367;-66
2021/05/02 13:23:37;;;;;;;;;;;32.00;21.00;;;;;;5053752;28;74410;-66
2021/05/02 13:26:13;;;;;;;;;;;30.50;22.20;;;;;;5051561;28;77663;-69
2021/05/02 13:28:39;;;;;;;;;;;29.20;23.20;;;;;;5053164;28;75565;-68
2021/05/02 13:31:07;;;;;;;;;;;28.40;24.30;;;;;;5051164;28;76278;-66
2021/05/02 13:33:33;;;;;;;;;;;27.90;24.70;;;;;;5051586;28;77510;-65
2021/05/02 13:35:58;;;;;;;;;;;28.30;23.70;;;;;;5052915;28;75181;-67
2021/05/02 13:38:24;;;;;;;;;;;28.50;23.20;;;;;;5052920;28;75125;-68
2021/05/02 13:40:50;;;;;;;;;;;28.90;23.20;;;;;;5051796;27;75517;-66
2021/05/02 13:43:16;;;;;;;;;;;29.10;22.60;;;;;;5051647;28;75332;-66
2021/05/02 13:45:41;;;;;;;;;;;28.40;23.00;;;;;;5051293;28;77319;-68
2021/05/02 13:48:07;;;;;;;;;;;27.70;24.10;;;;;;5051839;27;75544;-67
2021/05/02 13:50:33;;;;;;;;;;;27.30;24.40;;;;;;5052961;28;75051;-66
2021/05/02 13:53:02;;;;;;;;;;;27.00;24.20;;;;;;5085052;27;76404;-68
2021/05/02 13:55:28;;;;;;;;;;;26.40;24.60;;;;;;5051240;28;76730;-68
2021/05/02 13:57:53;;;;;;;;;;;25.90;25.30;;;;;;5052885;28;75721;-68
2021/05/02 14:00:21;;;;;;;;;;;25.60;25.50;;;;;;5052699;28;75101;-68
2021/05/02 14:02:46;;;;;;;;;;;25.40;25.60;;;;;;5052771;28;75198;-69
2021/05/02 14:05:13;;;;;;;;;;;25.10;26.00;;;;;;5050752;28;74488;-68
2021/05/02 14:07:39;;;;;;;;;;;24.90;26.00;;;;;;5052859;28;75275;-69
2021/05/02 14:10:06;;;;;;;;;;;24.80;26.40;;;;;;5050954;28;75327;-66
2021/05/02 14:12:31;;;;;;;;;;;24.70;26.40;;;;;;5050757;28;76308;-67
2021/05/02 14:14:57;;;;;;;;;;;24.60;26.10;;;;;;5051023;28;75150;-68
2021/05/02 14:17:26;;;;;;;;;;;24.60;26.60;;;;;;5050471;28;77565;-68
2021/05/02 14:19:52;;;;;;;;;;;24.50;26.50;;;;;;5052696;27;74382;-66